createdAt,value
2023-04-15T00:00:00.000Z,79.42
2023-04-15T00:15:00.000Z,79.29
2023-04-15T00:30:00.000Z,79.13
2023-04-15T00:45:00.000Z,79.09
2023-04-15T01:00:00.000Z,79.12
2023-04-15T01:15:00.000Z,79.13
2023-04-15T01:30:00.000Z,79.12
2023-04-15T01:45:00.000Z,79.01
2023-04-15T02:00:00.000Z,78.94
2023-04-15T02:15:00.000Z,79.03
2023-04-15T02:30:00.000Z,78.99
2023-04-15T02:45:00.000Z,79.07
2023-04-15T03:00:00.000Z,79.04
2023-04-15T03:15:00.000Z,79.16
2023-04-15T03:30:00.000Z,79.2
2023-04-15T03:45:00.000Z,79.19
2023-04-15T04:00:00.000Z,79.2
2023-04-15T04:15:00.000Z,79.14
2023-04-15T04:30:00.000Z,79.22
2023-04-15T04:45:00.000Z,79.12
2023-04-15T05:00:00.000Z,78.81
2023-04-15T05:15:00.000Z,78.61
2023-04-15T05:30:00.000Z,78.46
2023-04-15T05:45:00.000Z,78.28
2023-04-15T06:00:00.000Z,78.2
2023-04-15T06:15:00.000Z,78.43
2023-04-15T06:30:00.000Z,78.37
2023-04-15T06:45:00.000Z,77.79
2023-04-15T07:00:00.000Z,77.33
2023-04-15T07:15:00.000Z,77.82
2023-04-15T07:30:00.000Z,76.74
2023-04-15T07:45:00.000Z,76.72
2023-04-15T08:00:00.000Z,77.02
2023-04-15T08:15:00.000Z,77.4
2023-04-15T08:30:00.000Z,77.69
2023-04-15T08:45:00.000Z,77.64
2023-04-15T09:00:00.000Z,78.02
2023-04-15T09:15:00.000Z,78.2
2023-04-15T09:30:00.000Z,78.34
2023-04-15T09:45:00.000Z,78.04
2023-04-15T10:00:00.000Z,77.64
2023-04-15T10:15:00.000Z,76.73
2023-04-15T10:30:00.000Z,76.32
2023-04-15T10:45:00.000Z,75.87
2023-04-15T11:00:00.000Z,75.29
2023-04-15T11:15:00.000Z,75.47
2023-04-15T11:30:00.000Z,75.67
2023-04-15T11:45:00.000Z,75.09
2023-04-15T12:00:00.000Z,74.76
2023-04-15T12:15:00.000Z,75.05
2023-04-15T12:30:00.000Z,75.4
2023-04-15T12:45:00.000Z,74.79
2023-04-15T13:00:00.000Z,74.95
2023-04-15T13:15:00.000Z,75.56
2023-04-15T13:30:00.000Z,76.22
2023-04-15T13:45:00.000Z,76.1
2023-04-15T14:00:00.000Z,76.6
2023-04-15T14:15:00.000Z,76.99
2023-04-15T14:30:00.000Z,77.17
2023-04-15T14:45:00.000Z,77.48
2023-04-15T15:00:00.000Z,78
2023-04-15T15:15:00.000Z,78.17
2023-04-15T15:30:00.000Z,77.83
2023-04-15T16:00:00.000Z,77.82
2023-04-15T16:15:00.000Z,77.83
2023-04-15T16:30:00.000Z,77.86
2023-04-15T16:45:00.000Z,78.07
2023-04-15T17:00:00.000Z,78.35
2023-04-15T17:15:00.000Z,78.36
2023-04-15T17:30:00.000Z,78.58
2023-04-15T17:45:00.000Z,78.51
2023-04-15T18:00:00.000Z,78.5
2023-04-15T18:15:00.000Z,78.58
2023-04-15T18:30:00.000Z,78.49
2023-04-15T18:45:00.000Z,78.66
2023-04-15T19:00:00.000Z,78.78
2023-04-15T19:15:00.000Z,78.86
2023-04-15T19:30:00.000Z,78.81
2023-04-15T19:45:00.000Z,78.68
2023-04-15T20:00:00.000Z,78.78
2023-04-15T20:15:00.000Z,78.93
2023-04-15T20:30:00.000Z,78.95
2023-04-15T20:45:00.000Z,78.79
2023-04-15T21:00:00.000Z,78.65
2023-04-15T21:15:00.000Z,78.63
2023-04-15T21:30:00.000Z,78.63
2023-04-15T21:45:00.000Z,78.68
2023-04-15T22:00:00.000Z,78.46
2023-04-15T22:15:00.000Z,78.36
2023-04-15T22:30:00.000Z,78.22
2023-04-15T22:45:00.000Z,78.09
2023-04-15T23:00:00.000Z,78.17
2023-04-15T23:15:00.000Z,78.01
2023-04-15T23:30:00.000Z,78.13
2023-04-15T23:45:00.000Z,78.21
